Lipscomb, Texas
Current Conditions -  °F | °C
As of 4:15 PM on Thursday 23 Oct 2014 (Local Time) from KHHF Reporting Station
Clear Clear  
Wind Chill: 80°   Ceiling: Unl
Heat Index: 81°   Visibility: 10mi
Dew Point: 60°   Wind: 9mph
Humidity: 49%   Direction: 170°S
Pressure: 30.02"   Gusts: NA
Location:  36.23°N, 100.27°W
Report Text: KHHF 232115Z AUTO 17008KT 10SM CLR 27/15 A3002 RMK AO2 T02680154
Loading
Personal Weather Stations






























Interactive Weather Map
Tropical Storm Tracking
New forecast layout! Learn more

10-Day Weather Forecast

Advertisements
Track Severe Weather on mobile